PWSweather.com
Personal Weather Stations
Station Observations
PRATO
PratoIT 59100

PratoIT 59100

Lat: 43.8956799, Lon: 11.0845155

Elevation: 164

Station Type: Davis Vantage Vue

http://www.meteoprato.it

High Low Average
Temperature 68.3°F20.2°C 59.6°F15.3°C 65.4°F18.6°C
Dew Point 50.4°F10.2°C 42.9°F6.1°C 46.1°F7.8°C
Winds 21.2 mph 34.1 kmh 1.0 mph 1.6 kmh 12.0 mph NE19.3 kmh NE
Wind Gusts 37.0 mph59.5 kmh 3.0 mph4.8 kmh 22.0 mph35.4 kmh
Humidity 64% 45% 50%
Pressure 29.93 in1013.5 mb 29.68 in1005.1 mb -
Precipitation 0.00 in0.0 mm - -
Hour Temp Dew Point Humidity Winds Wind Gusts Pressure Precip Precip Rate Daily Precip Total
12:00 AM 64.6°F18.1°C 43.3°F6.3°C 46% 14.7 mph NE23.7 kmh NE 24.0 mph38.6 kmh 29.93 in1013.5 mb 0.00 in0.0 mm 0.00 in0.0 mm 0.00 in0.0 mm
12:05 AM 64.6°F18.1°C 43.3°F6.3°C 46% 14.0 mph NE22.5 kmh NE 24.0 mph38.6 kmh 29.93 in1013.5 mb 0.00 in0.0 mm 0.00 in0.0 mm 0.00 in0.0 mm
12:10 AM 64.6°F18.1°C 43.3°F6.3°C 46% 13.9 mph NE22.4 kmh NE 24.0 mph38.6 kmh 29.93 in1013.5 mb 0.00 in0.0 mm 0.00 in0.0 mm 0.00 in0.0 mm
12:15 AM 64.5°F18.1°C 43.3°F6.3°C 46% 14.0 mph NE22.5 kmh NE 24.0 mph38.6 kmh 29.93 in1013.5 mb 0.00 in0.0 mm 0.00 in0.0 mm 0.00 in0.0 mm
12:20 AM 64.5°F18.1°C 43.3°F6.3°C 46% 14.0 mph NE22.5 kmh NE 24.0 mph38.6 kmh 29.92 in1013.2 mb 0.00 in0.0 mm 0.00 in0.0 mm 0.00 in0.0 mm
12:25 AM 64.5°F18.1°C 43.8°F6.6°C 47% 14.2 mph NE22.9 kmh NE 25.0 mph40.2 kmh 29.92 in1013.2 mb 0.00 in0.0 mm 0.00 in0.0 mm 0.00 in0.0 mm
12:30 AM 64.4°F18.0°C 43.7°F6.5°C 47% 14.2 mph NE22.9 kmh NE 25.0 mph40.2 kmh 29.92 in1013.2 mb 0.00 in0.0 mm 0.00 in0.0 mm 0.00 in0.0 mm
12:35 AM 64.3°F17.9°C 44.2°F6.8°C 48% 13.3 mph NE21.4 kmh NE 20.0 mph32.2 kmh 29.91 in1012.9 mb 0.00 in0.0 mm 0.00 in0.0 mm 0.00 in0.0 mm
12:40 AM 64.2°F17.9°C 44.1°F6.7°C 48% 12.1 mph NE19.5 kmh NE 20.0 mph32.2 kmh 29.91 in1012.9 mb 0.00 in0.0 mm 0.00 in0.0 mm 0.00 in0.0 mm
12:45 AM 64.2°F17.9°C 44.6°F7.0°C 49% 11.7 mph NE18.8 kmh NE 26.0 mph41.8 kmh 29.90 in1012.5 mb 0.00 in0.0 mm 0.00 in0.0 mm 0.00 in0.0 mm
12:50 AM 64.1°F17.8°C 44.5°F6.9°C 49% 12.1 mph NE19.5 kmh NE 26.0 mph41.8 kmh 29.90 in1012.5 mb 0.00 in0.0 mm 0.00 in0.0 mm 0.00 in0.0 mm
12:55 AM 64.0°F17.8°C 45.0°F7.2°C 50% 12.7 mph NE20.4 kmh NE 23.0 mph37.0 kmh 29.89 in1012.2 mb 0.00 in0.0 mm 0.00 in0.0 mm 0.00 in0.0 mm
01:00 AM 64.0°F17.8°C 45.0°F7.2°C 50% 13.0 mph NE20.9 kmh NE 23.0 mph37.0 kmh 29.90 in1012.5 mb 0.00 in0.0 mm 0.00 in0.0 mm 0.00 in0.0 mm
01:05 AM 64.0°F17.8°C 45.0°F7.2°C 50% 13.4 mph NE21.6 kmh NE 23.0 mph37.0 kmh 29.90 in1012.5 mb 0.00 in0.0 mm 0.00 in0.0 mm 0.00 in0.0 mm
01:10 AM 64.0°F17.8°C 45.0°F7.2°C 50% 13.6 mph NE21.9 kmh NE 26.0 mph41.8 kmh 29.90 in1012.5 mb 0.00 in0.0 mm 0.00 in0.0 mm 0.00 in0.0 mm
01:15 AM 64.1°F17.8°C 45.1°F7.3°C 50% 13.2 mph NE21.2 kmh NE 26.0 mph41.8 kmh 29.90 in1012.5 mb 0.00 in0.0 mm 0.00 in0.0 mm 0.00 in0.0 mm
01:20 AM 64.0°F17.8°C 45.5°F7.5°C 51% 13.1 mph NE21.1 kmh NE 24.0 mph38.6 kmh 29.89 in1012.2 mb 0.00 in0.0 mm 0.00 in0.0 mm 0.00 in0.0 mm
01:25 AM 64.0°F17.8°C 45.0°F7.2°C 50% 12.8 mph NE20.6 kmh NE 22.0 mph35.4 kmh 29.89 in1012.2 mb 0.00 in0.0 mm 0.00 in0.0 mm 0.00 in0.0 mm
01:30 AM 64.1°F17.8°C 45.1°F7.3°C 50% 12.2 mph NE19.6 kmh NE 23.0 mph37.0 kmh 29.89 in1012.2 mb 0.00 in0.0 mm 0.00 in0.0 mm 0.00 in0.0 mm
01:35 AM 64.1°F17.8°C 45.1°F7.3°C 50% 12.6 mph NE20.3 kmh NE 23.0 mph37.0 kmh 29.88 in1011.9 mb 0.00 in0.0 mm 0.00 in0.0 mm 0.00 in0.0 mm
01:40 AM 64.2°F17.9°C 45.2°F7.3°C 50% 13.2 mph NE21.2 kmh NE 23.0 mph37.0 kmh 29.88 in1011.9 mb 0.00 in0.0 mm 0.00 in0.0 mm 0.00 in0.0 mm
01:45 AM 64.2°F17.9°C 44.6°F7.0°C 49% 13.2 mph NE21.2 kmh NE 24.0 mph38.6 kmh 29.88 in1011.9 mb 0.00 in0.0 mm 0.00 in0.0 mm 0.00 in0.0 mm
01:50 AM 64.2°F17.9°C 44.6°F7.0°C 49% 13.4 mph NE21.6 kmh NE 24.0 mph38.6 kmh 29.88 in1011.9 mb 0.00 in0.0 mm 0.00 in0.0 mm 0.00 in0.0 mm
01:55 AM 64.3°F17.9°C 44.7°F7.1°C 49% 13.6 mph NE21.9 kmh NE 24.0 mph38.6 kmh 29.87 in1011.5 mb 0.00 in0.0 mm 0.00 in0.0 mm 0.00 in0.0 mm
02:00 AM 64.3°F17.9°C 44.2°F6.8°C 48% 13.5 mph NE21.7 kmh NE 26.0 mph41.8 kmh 29.87 in1011.5 mb 0.00 in0.0 mm 0.00 in0.0 mm 0.00 in0.0 mm
02:05 AM 64.4°F18.0°C 43.7°F6.5°C 47% 13.4 mph NE21.6 kmh NE 26.0 mph41.8 kmh 29.87 in1011.5 mb 0.00 in0.0 mm 0.00 in0.0 mm 0.00 in0.0 mm
02:10 AM 64.3°F17.9°C 43.6°F6.4°C 47% 13.1 mph NE21.1 kmh NE 21.0 mph33.8 kmh 29.86 in1011.2 mb 0.00 in0.0 mm 0.00 in0.0 mm 0.00 in0.0 mm
02:15 AM 64.3°F17.9°C 43.6°F6.4°C 47% 12.4 mph NE20.0 kmh NE 20.0 mph32.2 kmh 29.86 in1011.2 mb 0.00 in0.0 mm 0.00 in0.0 mm 0.00 in0.0 mm
02:20 AM 64.4°F18.0°C 43.7°F6.5°C 47% 12.0 mph NE19.3 kmh NE 20.0 mph32.2 kmh 29.86 in1011.2 mb 0.00 in0.0 mm 0.00 in0.0 mm 0.00 in0.0 mm
02:25 AM 64.5°F18.1°C 43.3°F6.3°C 46% 12.0 mph NE19.3 kmh NE 22.0 mph35.4 kmh 29.86 in1011.2 mb 0.00 in0.0 mm 0.00 in0.0 mm 0.00 in0.0 mm
02:30 AM 64.7°F18.2°C 42.9°F6.1°C 45% 12.5 mph NE20.1 kmh NE 23.0 mph37.0 kmh 29.87 in1011.5 mb 0.00 in0.0 mm 0.00 in0.0 mm 0.00 in0.0 mm
02:35 AM 64.8°F18.2°C 42.9°F6.1°C 45% 13.1 mph NE21.1 kmh NE 24.0 mph38.6 kmh 29.86 in1011.2 mb 0.00 in0.0 mm 0.00 in0.0 mm 0.00 in0.0 mm
02:40 AM 64.8°F18.2°C 43.5°F6.4°C 46% 13.6 mph NE21.9 kmh NE 27.0 mph43.5 kmh 29.86 in1011.2 mb 0.00 in0.0 mm 0.00 in0.0 mm 0.00 in0.0 mm
02:45 AM 64.7°F18.2°C 43.4°F6.3°C 46% 14.4 mph NE23.2 kmh NE 28.0 mph45.1 kmh 29.85 in1010.8 mb 0.00 in0.0 mm 0.00 in0.0 mm 0.00 in0.0 mm
02:50 AM 64.7°F18.2°C 43.4°F6.3°C 46% 14.9 mph NE24.0 kmh NE 28.0 mph45.1 kmh 29.85 in1010.8 mb 0.00 in0.0 mm 0.00 in0.0 mm 0.00 in0.0 mm
02:55 AM 64.8°F18.2°C 43.5°F6.4°C 46% 14.8 mph NE23.8 kmh NE 23.0 mph37.0 kmh 29.84 in1010.5 mb 0.00 in0.0 mm 0.00 in0.0 mm 0.00 in0.0 mm
03:00 AM 64.8°F18.2°C 43.5°F6.4°C 46% 14.2 mph NE22.9 kmh NE 23.0 mph37.0 kmh 29.84 in1010.5 mb 0.00 in0.0 mm 0.00 in0.0 mm 0.00 in0.0 mm
03:05 AM 64.9°F18.3°C 43.6°F6.4°C 46% 13.9 mph NE22.4 kmh NE 26.0 mph41.8 kmh 29.84 in1010.5 mb 0.00 in0.0 mm 0.00 in0.0 mm 0.00 in0.0 mm
03:10 AM 64.8°F18.2°C 43.5°F6.4°C 46% 13.8 mph NE22.2 kmh NE 26.0 mph41.8 kmh 29.83 in1010.2 mb 0.00 in0.0 mm 0.00 in0.0 mm 0.00 in0.0 mm
03:15 AM 64.9°F18.3°C 43.6°F6.4°C 46% 12.9 mph NE20.8 kmh NE 22.0 mph35.4 kmh 29.83 in1010.2 mb 0.00 in0.0 mm 0.00 in0.0 mm 0.00 in0.0 mm
03:20 AM 64.9°F18.3°C 43.6°F6.4°C 46% 12.4 mph NE20.0 kmh NE 24.0 mph38.6 kmh 29.83 in1010.2 mb 0.00 in0.0 mm 0.00 in0.0 mm 0.00 in0.0 mm
03:25 AM 64.8°F18.2°C 44.1°F6.7°C 47% 12.8 mph NE20.6 kmh NE 24.0 mph38.6 kmh 29.83 in1010.2 mb 0.00 in0.0 mm 0.00 in0.0 mm 0.00 in0.0 mm
03:30 AM 64.9°F18.3°C 44.2°F6.8°C 47% 13.1 mph NE21.1 kmh NE 25.0 mph40.2 kmh 29.82 in1009.8 mb 0.00 in0.0 mm 0.00 in0.0 mm 0.00 in0.0 mm
03:35 AM 64.8°F18.2°C 44.1°F6.7°C 47% 13.7 mph NE22.0 kmh NE 25.0 mph40.2 kmh 29.82 in1009.8 mb 0.00 in0.0 mm 0.00 in0.0 mm 0.00 in0.0 mm
03:40 AM 64.8°F18.2°C 44.1°F6.7°C 47% 14.1 mph NE22.7 kmh NE 22.0 mph35.4 kmh 29.81 in1009.5 mb 0.00 in0.0 mm 0.00 in0.0 mm 0.00 in0.0 mm
03:45 AM 64.8°F18.2°C 44.1°F6.7°C 47% 13.8 mph NE22.2 kmh NE 22.0 mph35.4 kmh 29.81 in1009.5 mb 0.00 in0.0 mm 0.00 in0.0 mm 0.00 in0.0 mm
03:50 AM 64.8°F18.2°C 44.1°F6.7°C 47% 13.7 mph NE22.0 kmh NE 24.0 mph38.6 kmh 29.80 in1009.1 mb 0.00 in0.0 mm 0.00 in0.0 mm 0.00 in0.0 mm
03:55 AM 64.9°F18.3°C 44.2°F6.8°C 47% 13.4 mph NE21.6 kmh NE 24.0 mph38.6 kmh 29.80 in1009.1 mb 0.00 in0.0 mm 0.00 in0.0 mm 0.00 in0.0 mm
04:00 AM 64.9°F18.3°C 44.2°F6.8°C 47% 13.0 mph NE20.9 kmh NE 22.0 mph35.4 kmh 29.80 in1009.1 mb 0.00 in0.0 mm 0.00 in0.0 mm 0.00 in0.0 mm
04:05 AM 64.7°F18.2°C 44.5°F6.9°C 48% 13.3 mph NE21.4 kmh NE 29.0 mph46.7 kmh 29.80 in1009.1 mb 0.00 in0.0 mm 0.00 in0.0 mm 0.00 in0.0 mm
04:10 AM 64.7°F18.2°C 44.5°F6.9°C 48% 14.1 mph NE22.7 kmh NE 29.0 mph46.7 kmh 29.80 in1009.1 mb 0.00 in0.0 mm 0.00 in0.0 mm 0.00 in0.0 mm
04:15 AM 64.7°F18.2°C 44.5°F6.9°C 48% 14.8 mph NE23.8 kmh NE 24.0 mph38.6 kmh 29.80 in1009.1 mb 0.00 in0.0 mm 0.00 in0.0 mm 0.00 in0.0 mm
04:20 AM 64.6°F18.1°C 44.5°F6.9°C 48% 14.6 mph NE23.5 kmh NE 27.0 mph43.5 kmh 29.79 in1008.8 mb 0.00 in0.0 mm 0.00 in0.0 mm 0.00 in0.0 mm
04:25 AM 64.7°F18.2°C 44.5°F6.9°C 48% 15.1 mph NE24.3 kmh NE 31.0 mph49.9 kmh 29.78 in1008.5 mb 0.00 in0.0 mm 0.00 in0.0 mm 0.00 in0.0 mm
04:30 AM 64.9°F18.3°C 44.2°F6.8°C 47% 17.2 mph NE27.7 kmh NE 31.0 mph49.9 kmh 29.79 in1008.8 mb 0.00 in0.0 mm 0.00 in0.0 mm 0.00 in0.0 mm
04:35 AM 64.9°F18.3°C 44.2°F6.8°C 47% 19.2 mph NE30.9 kmh NE 30.0 mph48.3 kmh 29.79 in1008.8 mb 0.00 in0.0 mm 0.00 in0.0 mm 0.00 in0.0 mm
04:40 AM 64.8°F18.2°C 44.1°F6.7°C 47% 19.7 mph NE31.7 kmh NE 28.0 mph45.1 kmh 29.78 in1008.5 mb 0.00 in0.0 mm 0.00 in0.0 mm 0.00 in0.0 mm
04:45 AM 64.6°F18.1°C 44.5°F6.9°C 48% 19.2 mph NE30.9 kmh NE 28.0 mph45.1 kmh 29.77 in1008.1 mb 0.00 in0.0 mm 0.00 in0.0 mm 0.00 in0.0 mm
04:50 AM 64.5°F18.1°C 44.4°F6.9°C 48% 18.4 mph NE29.6 kmh NE 30.0 mph48.3 kmh 29.76 in1007.8 mb 0.00 in0.0 mm 0.00 in0.0 mm 0.00 in0.0 mm
04:55 AM 64.5°F18.1°C 44.4°F6.9°C 48% 18.5 mph NE29.8 kmh NE 30.0 mph48.3 kmh 29.76 in1007.8 mb 0.00 in0.0 mm 0.00 in0.0 mm 0.00 in0.0 mm
05:00 AM 64.5°F18.1°C 44.4°F6.9°C 48% 19.5 mph NE31.4 kmh NE 33.0 mph53.1 kmh 29.77 in1008.1 mb 0.00 in0.0 mm 0.00 in0.0 mm 0.00 in0.0 mm
05:05 AM 64.3°F17.9°C 43.6°F6.4°C 47% 19.9 mph NE32.0 kmh NE 33.0 mph53.1 kmh 29.77 in1008.1 mb 0.00 in0.0 mm 0.00 in0.0 mm 0.00 in0.0 mm
05:10 AM 64.5°F18.1°C 43.8°F6.6°C 47% 19.0 mph NE30.6 kmh NE 30.0 mph48.3 kmh 29.75 in1007.5 mb 0.00 in0.0 mm 0.00 in0.0 mm 0.00 in0.0 mm
05:15 AM 64.5°F18.1°C 43.3°F6.3°C 46% 17.7 mph NE28.5 kmh NE 30.0 mph48.3 kmh 29.75 in1007.5 mb 0.00 in0.0 mm 0.00 in0.0 mm 0.00 in0.0 mm
05:20 AM 64.6°F18.1°C 43.3°F6.3°C 46% 17.7 mph NE28.5 kmh NE 37.0 mph59.5 kmh 29.74 in1007.1 mb 0.00 in0.0 mm 0.00 in0.0 mm 0.00 in0.0 mm
05:25 AM 64.7°F18.2°C 43.4°F6.3°C 46% 19.6 mph NE31.5 kmh NE 37.0 mph59.5 kmh 29.75 in1007.5 mb 0.00 in0.0 mm 0.00 in0.0 mm 0.00 in0.0 mm
05:30 AM 64.8°F18.2°C 42.9°F6.1°C 45% 21.2 mph NE34.1 kmh NE 33.0 mph53.1 kmh 29.75 in1007.5 mb 0.00 in0.0 mm 0.00 in0.0 mm 0.00 in0.0 mm
05:35 AM 64.8°F18.2°C 42.9°F6.1°C 45% 20.4 mph NE32.8 kmh NE 33.0 mph53.1 kmh 29.75 in1007.5 mb 0.00 in0.0 mm 0.00 in0.0 mm 0.00 in0.0 mm
05:40 AM 64.8°F18.2°C 43.5°F6.4°C 46% 18.1 mph NE29.1 kmh NE 25.0 mph40.2 kmh 29.75 in1007.5 mb 0.00 in0.0 mm 0.00 in0.0 mm 0.00 in0.0 mm
05:45 AM 64.9°F18.3°C 43.0°F6.1°C 45% 16.8 mph NE27.0 kmh NE 32.0 mph51.5 kmh 29.75 in1007.5 mb 0.00 in0.0 mm 0.00 in0.0 mm 0.00 in0.0 mm
05:50 AM 65.0°F18.3°C 43.1°F6.2°C 45% 18.1 mph NE29.1 kmh NE 32.0 mph51.5 kmh 29.76 in1007.8 mb 0.00 in0.0 mm 0.00 in0.0 mm 0.00 in0.0 mm
05:55 AM 64.9°F18.3°C 43.6°F6.4°C 46% 19.2 mph NE30.9 kmh NE 32.0 mph51.5 kmh 29.76 in1007.8 mb 0.00 in0.0 mm 0.00 in0.0 mm 0.00 in0.0 mm
06:00 AM 64.9°F18.3°C 43.6°F6.4°C 46% 18.2 mph NE29.3 kmh NE 32.0 mph51.5 kmh 29.77 in1008.1 mb 0.00 in0.0 mm 0.00 in0.0 mm 0.00 in0.0 mm
06:05 AM 65.0°F18.3°C 43.7°F6.5°C 46% 17.3 mph NE27.8 kmh NE 32.0 mph51.5 kmh 29.77 in1008.1 mb 0.00 in0.0 mm 0.00 in0.0 mm 0.00 in0.0 mm
06:10 AM 65.1°F18.4°C 43.8°F6.6°C 46% 18.1 mph NE29.1 kmh NE 31.0 mph49.9 kmh 29.77 in1008.1 mb 0.00 in0.0 mm 0.00 in0.0 mm 0.00 in0.0 mm
06:15 AM 65.0°F18.3°C 43.7°F6.5°C 46% 18.4 mph NE29.6 kmh NE 31.0 mph49.9 kmh 29.78 in1008.5 mb 0.00 in0.0 mm 0.00 in0.0 mm 0.00 in0.0 mm
06:20 AM 65.1°F18.4°C 44.4°F6.9°C 47% 16.8 mph NE27.0 kmh NE 27.0 mph43.5 kmh 29.78 in1008.5 mb 0.00 in0.0 mm 0.00 in0.0 mm 0.00 in0.0 mm
06:25 AM 65.0°F18.3°C 44.3°F6.8°C 47% 15.4 mph NE24.8 kmh NE 26.0 mph41.8 kmh 29.78 in1008.5 mb 0.00 in0.0 mm 0.00 in0.0 mm 0.00 in0.0 mm
06:30 AM 65.0°F18.3°C 44.3°F6.8°C 47% 14.6 mph NE23.5 kmh NE 27.0 mph43.5 kmh 29.77 in1008.1 mb 0.00 in0.0 mm 0.00 in0.0 mm 0.00 in0.0 mm
06:35 AM 65.0°F18.3°C 44.3°F6.8°C 47% 14.5 mph NE23.3 kmh NE 27.0 mph43.5 kmh 29.77 in1008.1 mb 0.00 in0.0 mm 0.00 in0.0 mm 0.00 in0.0 mm
06:40 AM 65.2°F18.4°C 44.5°F6.9°C 47% 15.6 mph NE25.1 kmh NE 30.0 mph48.3 kmh 29.78 in1008.5 mb 0.00 in0.0 mm 0.00 in0.0 mm 0.00 in0.0 mm
06:45 AM 65.1°F18.4°C 44.9°F7.2°C 48% 17.1 mph NE27.5 kmh NE 30.0 mph48.3 kmh 29.78 in1008.5 mb 0.00 in0.0 mm 0.00 in0.0 mm 0.00 in0.0 mm
06:50 AM 65.2°F18.4°C 45.0°F7.2°C 48% 16.8 mph NE27.0 kmh NE 24.0 mph38.6 kmh 29.78 in1008.5 mb 0.00 in0.0 mm 0.00 in0.0 mm 0.00 in0.0 mm
06:55 AM 65.2°F18.4°C 45.0°F7.2°C 48% 15.3 mph NE24.6 kmh NE 30.0 mph48.3 kmh 29.78 in1008.5 mb 0.00 in0.0 mm 0.00 in0.0 mm 0.00 in0.0 mm
07:00 AM 65.2°F18.4°C 45.0°F7.2°C 48% 14.9 mph NE24.0 kmh NE 30.0 mph48.3 kmh 29.78 in1008.5 mb 0.00 in0.0 mm 0.00 in0.0 mm 0.00 in0.0 mm
07:05 AM 65.1°F18.4°C 45.5°F7.5°C 49% 15.4 mph NE24.8 kmh NE 26.0 mph41.8 kmh 29.79 in1008.8 mb 0.00 in0.0 mm 0.00 in0.0 mm 0.00 in0.0 mm
07:10 AM 65.0°F18.3°C 45.4°F7.4°C 49% 14.7 mph NE23.7 kmh NE 25.0 mph40.2 kmh 29.79 in1008.8 mb 0.00 in0.0 mm 0.00 in0.0 mm 0.00 in0.0 mm
07:15 AM 65.0°F18.3°C 45.4°F7.4°C 49% 13.7 mph NE22.0 kmh NE 25.0 mph40.2 kmh 29.78 in1008.5 mb 0.00 in0.0 mm 0.00 in0.0 mm 0.00 in0.0 mm
07:20 AM 65.0°F18.3°C 45.4°F7.4°C 49% 13.8 mph NE22.2 kmh NE 24.0 mph38.6 kmh 29.79 in1008.8 mb 0.00 in0.0 mm 0.00 in0.0 mm 0.00 in0.0 mm
07:25 AM 65.1°F18.4°C 45.5°F7.5°C 49% 13.9 mph NE22.4 kmh NE 24.0 mph38.6 kmh 29.79 in1008.8 mb 0.00 in0.0 mm 0.00 in0.0 mm 0.00 in0.0 mm
07:30 AM 65.2°F18.4°C 45.5°F7.5°C 49% 13.4 mph NE21.6 kmh NE 24.0 mph38.6 kmh 29.79 in1008.8 mb 0.00 in0.0 mm 0.00 in0.0 mm 0.00 in0.0 mm
07:35 AM 65.4°F18.6°C 45.2°F7.3°C 48% 12.7 mph NE20.4 kmh NE 24.0 mph38.6 kmh 29.78 in1008.5 mb 0.00 in0.0 mm 0.00 in0.0 mm 0.00 in0.0 mm
07:40 AM 65.5°F18.6°C 45.8°F7.7°C 49% 12.6 mph NE20.3 kmh NE 22.0 mph35.4 kmh 29.79 in1008.8 mb 0.00 in0.0 mm 0.00 in0.0 mm 0.00 in0.0 mm
07:45 AM 65.5°F18.6°C 45.8°F7.7°C 49% 13.0 mph NE20.9 kmh NE 24.0 mph38.6 kmh 29.79 in1008.8 mb 0.00 in0.0 mm 0.00 in0.0 mm 0.00 in0.0 mm
07:50 AM 65.5°F18.6°C 45.8°F7.7°C 49% 13.3 mph NE21.4 kmh NE 24.0 mph38.6 kmh 29.80 in1009.1 mb 0.00 in0.0 mm 0.00 in0.0 mm 0.00 in0.0 mm
07:55 AM 65.5°F18.6°C 45.8°F7.7°C 49% 13.2 mph NE21.2 kmh NE 23.0 mph37.0 kmh 29.80 in1009.1 mb 0.00 in0.0 mm 0.00 in0.0 mm 0.00 in0.0 mm
08:00 AM 65.5°F18.6°C 45.8°F7.7°C 49% 13.0 mph NE20.9 kmh NE 23.0 mph37.0 kmh 29.81 in1009.5 mb 0.00 in0.0 mm 0.00 in0.0 mm 0.00 in0.0 mm
08:05 AM 65.3°F18.5°C 46.2°F7.9°C 50% 13.0 mph NE20.9 kmh NE 27.0 mph43.5 kmh 29.80 in1009.1 mb 0.00 in0.0 mm 0.00 in0.0 mm 0.00 in0.0 mm
08:10 AM 65.2°F18.4°C 46.1°F7.8°C 50% 13.1 mph NE21.1 kmh NE 27.0 mph43.5 kmh 29.80 in1009.1 mb 0.00 in0.0 mm 0.00 in0.0 mm 0.00 in0.0 mm
08:15 AM 65.3°F18.5°C 45.6°F7.6°C 49% 13.6 mph NE21.9 kmh NE 24.0 mph38.6 kmh 29.80 in1009.1 mb 0.00 in0.0 mm 0.00 in0.0 mm 0.00 in0.0 mm
08:20 AM 65.4°F18.6°C 45.7°F7.6°C 49% 14.2 mph NE22.9 kmh NE 25.0 mph40.2 kmh 29.79 in1008.8 mb 0.00 in0.0 mm 0.00 in0.0 mm 0.00 in0.0 mm
08:25 AM 65.4°F18.6°C 45.7°F7.6°C 49% 14.9 mph NE24.0 kmh NE 25.0 mph40.2 kmh 29.80 in1009.1 mb 0.00 in0.0 mm 0.00 in0.0 mm 0.00 in0.0 mm
08:30 AM 65.5°F18.6°C 45.3°F7.4°C 48% 14.8 mph NE23.8 kmh NE 24.0 mph38.6 kmh 29.80 in1009.1 mb 0.00 in0.0 mm 0.00 in0.0 mm 0.00 in0.0 mm
08:35 AM 65.7°F18.7°C 46.0°F7.8°C 49% 13.4 mph NE21.6 kmh NE 23.0 mph37.0 kmh 29.80 in1009.1 mb 0.00 in0.0 mm 0.00 in0.0 mm 0.00 in0.0 mm
08:40 AM 65.5°F18.6°C 45.8°F7.7°C 49% 12.6 mph NE20.3 kmh NE 23.0 mph37.0 kmh 29.80 in1009.1 mb 0.00 in0.0 mm 0.00 in0.0 mm 0.00 in0.0 mm
08:45 AM 65.5°F18.6°C 45.8°F7.7°C 49% 13.3 mph NE21.4 kmh NE 23.0 mph37.0 kmh 29.80 in1009.1 mb 0.00 in0.0 mm 0.00 in0.0 mm 0.00 in0.0 mm
08:50 AM 65.5°F18.6°C 45.8°F7.7°C 49% 13.9 mph NE22.4 kmh NE 23.0 mph37.0 kmh 29.79 in1008.8 mb 0.00 in0.0 mm 0.00 in0.0 mm 0.00 in0.0 mm
08:55 AM 65.4°F18.6°C 46.3°F7.9°C 50% 13.3 mph NE21.4 kmh NE 23.0 mph37.0 kmh 29.79 in1008.8 mb 0.00 in0.0 mm 0.00 in0.0 mm 0.00 in0.0 mm
09:00 AM 65.0°F18.3°C 47.4°F8.6°C 53% 12.8 mph NE20.6 kmh NE 21.0 mph33.8 kmh 29.78 in1008.5 mb 0.00 in0.0 mm 0.00 in0.0 mm 0.00 in0.0 mm
09:05 AM 64.6°F18.1°C 47.1°F8.4°C 53% 13.0 mph NE20.9 kmh NE 23.0 mph37.0 kmh 29.78 in1008.5 mb 0.00 in0.0 mm 0.00 in0.0 mm 0.00 in0.0 mm
09:10 AM 64.4°F18.0°C 46.9°F8.3°C 53% 13.5 mph NE21.7 kmh NE 25.0 mph40.2 kmh 29.78 in1008.5 mb 0.00 in0.0 mm 0.00 in0.0 mm 0.00 in0.0 mm
09:15 AM 64.4°F18.0°C 46.4°F8.0°C 52% 13.9 mph NE22.4 kmh NE 25.0 mph40.2 kmh 29.78 in1008.5 mb 0.00 in0.0 mm 0.00 in0.0 mm 0.00 in0.0 mm
09:20 AM 64.6°F18.1°C 46.1°F7.8°C 51% 13.7 mph NE22.0 kmh NE 22.0 mph35.4 kmh 29.78 in1008.5 mb 0.00 in0.0 mm 0.00 in0.0 mm 0.00 in0.0 mm
09:25 AM 64.8°F18.2°C 46.2°F7.9°C 51% 13.2 mph NE21.2 kmh NE 24.0 mph38.6 kmh 29.78 in1008.5 mb 0.00 in0.0 mm 0.00 in0.0 mm 0.00 in0.0 mm
09:30 AM 64.9°F18.3°C 46.3°F7.9°C 51% 13.0 mph NE20.9 kmh NE 24.0 mph38.6 kmh 29.78 in1008.5 mb 0.00 in0.0 mm 0.00 in0.0 mm 0.00 in0.0 mm
09:35 AM 64.9°F18.3°C 46.3°F7.9°C 51% 12.7 mph NE20.4 kmh NE 22.0 mph35.4 kmh 29.78 in1008.5 mb 0.00 in0.0 mm 0.00 in0.0 mm 0.00 in0.0 mm
09:40 AM 64.8°F18.2°C 46.8°F8.2°C 52% 12.6 mph NE20.3 kmh NE 29.0 mph46.7 kmh 29.78 in1008.5 mb 0.00 in0.0 mm 0.00 in0.0 mm 0.00 in0.0 mm
09:45 AM 64.7°F18.2°C 46.7°F8.2°C 52% 12.4 mph NE20.0 kmh NE 29.0 mph46.7 kmh 29.78 in1008.5 mb 0.00 in0.0 mm 0.00 in0.0 mm 0.00 in0.0 mm
09:50 AM 64.6°F18.1°C 46.6°F8.1°C 52% 11.8 mph NE19.0 kmh NE 19.0 mph30.6 kmh 29.78 in1008.5 mb 0.00 in0.0 mm 0.00 in0.0 mm 0.00 in0.0 mm
09:55 AM 64.5°F18.1°C 47.0°F8.3°C 53% 11.8 mph NE19.0 kmh NE 19.0 mph30.6 kmh 29.78 in1008.5 mb 0.00 in0.0 mm 0.00 in0.0 mm 0.00 in0.0 mm
10:00 AM 64.7°F18.2°C 46.7°F8.2°C 52% 11.7 mph NE18.8 kmh NE 25.0 mph40.2 kmh 29.78 in1008.5 mb 0.00 in0.0 mm 0.00 in0.0 mm 0.00 in0.0 mm
10:05 AM 64.7°F18.2°C 46.1°F7.8°C 51% 12.1 mph NE19.5 kmh NE 25.0 mph40.2 kmh 29.77 in1008.1 mb 0.00 in0.0 mm 0.00 in0.0 mm 0.00 in0.0 mm
10:10 AM 65.0°F18.3°C 46.4°F8.0°C 51% 13.1 mph NE21.1 kmh NE 21.0 mph33.8 kmh 29.78 in1008.5 mb 0.00 in0.0 mm 0.00 in0.0 mm 0.00 in0.0 mm
10:15 AM 65.0°F18.3°C 46.4°F8.0°C 51% 13.1 mph NE21.1 kmh NE 21.0 mph33.8 kmh 29.78 in1008.5 mb 0.00 in0.0 mm 0.00 in0.0 mm 0.00 in0.0 mm
10:20 AM 64.9°F18.3°C 46.8°F8.2°C 52% 12.9 mph NE20.8 kmh NE 25.0 mph40.2 kmh 29.78 in1008.5 mb 0.00 in0.0 mm 0.00 in0.0 mm 0.00 in0.0 mm
10:25 AM 65.0°F18.3°C 46.4°F8.0°C 51% 13.4 mph NE21.6 kmh NE 28.0 mph45.1 kmh 29.77 in1008.1 mb 0.00 in0.0 mm 0.00 in0.0 mm 0.00 in0.0 mm
10:30 AM 65.1°F18.4°C 46.5°F8.1°C 51% 14.3 mph NE23.0 kmh NE 28.0 mph45.1 kmh 29.76 in1007.8 mb 0.00 in0.0 mm 0.00 in0.0 mm 0.00 in0.0 mm
10:35 AM 65.4°F18.6°C 46.8°F8.2°C 51% 15.0 mph NE24.1 kmh NE 30.0 mph48.3 kmh 29.76 in1007.8 mb 0.00 in0.0 mm 0.00 in0.0 mm 0.00 in0.0 mm
10:40 AM 65.2°F18.4°C 47.6°F8.7°C 53% 16.0 mph NE25.7 kmh NE 30.0 mph48.3 kmh 29.76 in1007.8 mb 0.00 in0.0 mm 0.00 in0.0 mm 0.00 in0.0 mm
10:45 AM 65.0°F18.3°C 47.4°F8.6°C 53% 16.4 mph NE26.4 kmh NE 27.0 mph43.5 kmh 29.76 in1007.8 mb 0.00 in0.0 mm 0.00 in0.0 mm 0.00 in0.0 mm
10:50 AM 64.8°F18.2°C 47.8°F8.8°C 54% 15.1 mph NE24.3 kmh NE 29.0 mph46.7 kmh 29.76 in1007.8 mb 0.00 in0.0 mm 0.00 in0.0 mm 0.00 in0.0 mm
10:55 AM 64.7°F18.2°C 47.7°F8.7°C 54% 14.7 mph NE23.7 kmh NE 29.0 mph46.7 kmh 29.76 in1007.8 mb 0.00 in0.0 mm 0.00 in0.0 mm 0.00 in0.0 mm
11:00 AM 64.9°F18.3°C 47.4°F8.6°C 53% 15.9 mph NE25.6 kmh NE 29.0 mph46.7 kmh 29.76 in1007.8 mb 0.00 in0.0 mm 0.00 in0.0 mm 0.00 in0.0 mm
11:05 AM 65.0°F18.3°C 47.4°F8.6°C 53% 17.0 mph NE27.4 kmh NE 29.0 mph46.7 kmh 29.76 in1007.8 mb 0.00 in0.0 mm 0.00 in0.0 mm 0.00 in0.0 mm
11:10 AM 64.9°F18.3°C 47.9°F8.8°C 54% 17.7 mph NE28.5 kmh NE 29.0 mph46.7 kmh 29.76 in1007.8 mb 0.00 in0.0 mm 0.00 in0.0 mm 0.00 in0.0 mm
11:15 AM 65.2°F18.4°C 47.1°F8.4°C 52% 17.8 mph NE28.6 kmh NE 29.0 mph46.7 kmh 29.74 in1007.1 mb 0.00 in0.0 mm 0.00 in0.0 mm 0.00 in0.0 mm
11:20 AM 65.3°F18.5°C 48.2°F9.0°C 54% 18.5 mph NE29.8 kmh NE 30.0 mph48.3 kmh 29.74 in1007.1 mb 0.00 in0.0 mm 0.00 in0.0 mm 0.00 in0.0 mm
11:25 AM 65.5°F18.6°C 47.9°F8.8°C 53% 20.0 mph NE32.2 kmh NE 32.0 mph51.5 kmh 29.74 in1007.1 mb 0.00 in0.0 mm 0.00 in0.0 mm 0.00 in0.0 mm
11:30 AM 65.3°F18.5°C 48.2°F9.0°C 54% 19.9 mph NE32.0 kmh NE 32.0 mph51.5 kmh 29.75 in1007.5 mb 0.00 in0.0 mm 0.00 in0.0 mm 0.00 in0.0 mm
11:35 AM 65.2°F18.4°C 48.1°F8.9°C 54% 18.6 mph NE29.9 kmh NE 34.0 mph54.7 kmh 29.73 in1006.8 mb 0.00 in0.0 mm 0.00 in0.0 mm 0.00 in0.0 mm
11:40 AM 65.3°F18.5°C 48.2°F9.0°C 54% 18.2 mph NE29.3 kmh NE 36.0 mph57.9 kmh 29.74 in1007.1 mb 0.00 in0.0 mm 0.00 in0.0 mm 0.00 in0.0 mm
11:45 AM 65.1°F18.4°C 49.0°F9.4°C 56% 18.5 mph NE29.8 kmh NE 36.0 mph57.9 kmh 29.74 in1007.1 mb 0.00 in0.0 mm 0.00 in0.0 mm 0.00 in0.0 mm
11:50 AM 65.0°F18.3°C 48.9°F9.4°C 56% 18.5 mph NE29.8 kmh NE 30.0 mph48.3 kmh 29.75 in1007.5 mb 0.00 in0.0 mm 0.00 in0.0 mm 0.00 in0.0 mm
11:55 AM 65.8°F18.8°C 47.7°F8.7°C 52% 17.9 mph NE28.8 kmh NE 31.0 mph49.9 kmh 29.75 in1007.5 mb 0.00 in0.0 mm 0.00 in0.0 mm 0.00 in0.0 mm
12:00 PM 66.8°F19.3°C 47.6°F8.7°C 50% 16.9 mph NE27.2 kmh NE 31.0 mph49.9 kmh 29.75 in1007.5 mb 0.00 in0.0 mm 0.00 in0.0 mm 0.00 in0.0 mm
12:05 PM 67.3°F19.6°C 47.5°F8.6°C 49% 16.3 mph NE26.2 kmh NE 27.0 mph43.5 kmh 29.75 in1007.5 mb 0.00 in0.0 mm 0.00 in0.0 mm 0.00 in0.0 mm
12:10 PM 67.4°F19.7°C 47.6°F8.7°C 49% 15.4 mph NE24.8 kmh NE 24.0 mph38.6 kmh 29.75 in1007.5 mb 0.00 in0.0 mm 0.00 in0.0 mm 0.00 in0.0 mm
12:15 PM 67.4°F19.7°C 47.0°F8.3°C 48% 14.4 mph NE23.2 kmh NE 27.0 mph43.5 kmh 29.74 in1007.1 mb 0.00 in0.0 mm 0.00 in0.0 mm 0.00 in0.0 mm
12:20 PM 67.3°F19.6°C 47.5°F8.6°C 49% 15.2 mph NE24.5 kmh NE 27.0 mph43.5 kmh 29.75 in1007.5 mb 0.00 in0.0 mm 0.00 in0.0 mm 0.00 in0.0 mm
12:25 PM 67.2°F19.6°C 46.8°F8.2°C 48% 16.2 mph NE26.1 kmh NE 28.0 mph45.1 kmh 29.75 in1007.5 mb 0.00 in0.0 mm 0.00 in0.0 mm 0.00 in0.0 mm
12:30 PM 67.0°F19.4°C 47.2°F8.4°C 49% 16.4 mph NE26.4 kmh NE 28.0 mph45.1 kmh 29.74 in1007.1 mb 0.00 in0.0 mm 0.00 in0.0 mm 0.00 in0.0 mm
12:35 PM 66.9°F19.4°C 47.1°F8.4°C 49% 16.7 mph NE26.9 kmh NE 26.0 mph41.8 kmh 29.75 in1007.5 mb 0.00 in0.0 mm 0.00 in0.0 mm 0.00 in0.0 mm
12:40 PM 66.9°F19.4°C 47.6°F8.7°C 50% 16.7 mph NE26.9 kmh NE 26.0 mph41.8 kmh 29.74 in1007.1 mb 0.00 in0.0 mm 0.00 in0.0 mm 0.00 in0.0 mm
12:45 PM 66.8°F19.3°C 47.6°F8.7°C 50% 15.7 mph NE25.3 kmh NE 25.0 mph40.2 kmh 29.74 in1007.1 mb 0.00 in0.0 mm 0.00 in0.0 mm 0.00 in0.0 mm
12:50 PM 66.8°F19.3°C 48.1°F8.9°C 51% 15.0 mph NE24.1 kmh NE 26.0 mph41.8 kmh 29.75 in1007.5 mb 0.00 in0.0 mm 0.00 in0.0 mm 0.00 in0.0 mm
12:55 PM 66.8°F19.3°C 48.1°F8.9°C 51% 15.0 mph NE24.1 kmh NE 27.0 mph43.5 kmh 29.75 in1007.5 mb 0.00 in0.0 mm 0.00 in0.0 mm 0.00 in0.0 mm
01:00 PM 67.0°F19.4°C 47.7°F8.7°C 50% 14.6 mph NE23.5 kmh NE 27.0 mph43.5 kmh 29.75 in1007.5 mb 0.00 in0.0 mm 0.00 in0.0 mm 0.00 in0.0 mm
01:05 PM 67.3°F19.6°C 47.5°F8.6°C 49% 13.0 mph NE20.9 kmh NE 20.0 mph32.2 kmh 29.75 in1007.5 mb 0.00 in0.0 mm 0.00 in0.0 mm 0.00 in0.0 mm
01:10 PM 67.6°F19.8°C 47.8°F8.8°C 49% 11.6 mph NE18.7 kmh NE 20.0 mph32.2 kmh 29.75 in1007.5 mb 0.00 in0.0 mm 0.00 in0.0 mm 0.00 in0.0 mm
01:15 PM 67.8°F19.9°C 47.4°F8.6°C 48% 11.6 mph NE18.7 kmh NE 20.0 mph32.2 kmh 29.75 in1007.5 mb 0.00 in0.0 mm 0.00 in0.0 mm 0.00 in0.0 mm
01:20 PM 68.1°F20.1°C 47.1°F8.4°C 47% 11.9 mph NE19.2 kmh NE 22.0 mph35.4 kmh 29.75 in1007.5 mb 0.00 in0.0 mm 0.00 in0.0 mm 0.00 in0.0 mm
01:25 PM 68.3°F20.2°C 47.3°F8.5°C 47% 11.2 mph NE18.0 kmh NE 22.0 mph35.4 kmh 29.75 in1007.5 mb 0.00 in0.0 mm 0.00 in0.0 mm 0.00 in0.0 mm
01:30 PM 68.2°F20.1°C 47.2°F8.4°C 47% 10.0 mph NE16.1 kmh NE 21.0 mph33.8 kmh 29.76 in1007.8 mb 0.00 in0.0 mm 0.00 in0.0 mm 0.00 in0.0 mm
01:35 PM 68.2°F20.1°C 47.8°F8.8°C 48% 8.1 mph NE13.0 kmh NE 16.0 mph25.7 kmh 29.76 in1007.8 mb 0.00 in0.0 mm 0.00 in0.0 mm 0.00 in0.0 mm
01:40 PM 68.1°F20.1°C 47.7°F8.7°C 48% 5.8 mph NE9.3 kmh NE 11.0 mph17.7 kmh 29.77 in1008.1 mb 0.00 in0.0 mm 0.00 in0.0 mm 0.00 in0.0 mm
01:45 PM 68.2°F20.1°C 48.3°F9.1°C 49% 3.9 mph NE6.3 kmh NE 10.0 mph16.1 kmh 29.77 in1008.1 mb 0.00 in0.0 mm 0.00 in0.0 mm 0.00 in0.0 mm
01:50 PM 68.1°F20.1°C 47.7°F8.7°C 48% 2.7 mph SW4.3 kmh SW 5.0 mph8.0 kmh 29.77 in1008.1 mb 0.00 in0.0 mm 0.00 in0.0 mm 0.00 in0.0 mm
01:55 PM 68.1°F20.1°C 47.7°F8.7°C 48% 2.1 mph SW3.4 kmh SW 7.0 mph11.3 kmh 29.77 in1008.1 mb 0.00 in0.0 mm 0.00 in0.0 mm 0.00 in0.0 mm
02:00 PM 68.0°F20.0°C 47.6°F8.7°C 48% 2.0 mph NE3.2 kmh NE 8.0 mph12.9 kmh 29.77 in1008.1 mb 0.00 in0.0 mm 0.00 in0.0 mm 0.00 in0.0 mm
02:05 PM 67.8°F19.9°C 47.4°F8.6°C 48% 2.4 mph NE3.9 kmh NE 10.0 mph16.1 kmh 29.77 in1008.1 mb 0.00 in0.0 mm 0.00 in0.0 mm 0.00 in0.0 mm
02:10 PM 67.7°F19.8°C 47.8°F8.8°C 49% 3.7 mph NE6.0 kmh NE 13.0 mph20.9 kmh 29.77 in1008.1 mb 0.00 in0.0 mm 0.00 in0.0 mm 0.00 in0.0 mm
02:15 PM 67.6°F19.8°C 48.3°F9.1°C 50% 5.4 mph NE8.7 kmh NE 16.0 mph25.7 kmh 29.76 in1007.8 mb 0.00 in0.0 mm 0.00 in0.0 mm 0.00 in0.0 mm
02:20 PM 67.5°F19.7°C 48.7°F9.3°C 51% 7.6 mph NE12.2 kmh NE 17.0 mph27.4 kmh 29.75 in1007.5 mb 0.00 in0.0 mm 0.00 in0.0 mm 0.00 in0.0 mm
02:25 PM 67.3°F19.6°C 49.1°F9.5°C 52% 9.4 mph NE15.1 kmh NE 17.0 mph27.4 kmh 29.75 in1007.5 mb 0.00 in0.0 mm 0.00 in0.0 mm 0.00 in0.0 mm
02:30 PM 67.1°F19.5°C 48.9°F9.4°C 52% 9.2 mph NE14.8 kmh NE 15.0 mph24.1 kmh 29.75 in1007.5 mb 0.00 in0.0 mm 0.00 in0.0 mm 0.00 in0.0 mm
02:35 PM 67.2°F19.6°C 49.0°F9.4°C 52% 7.9 mph NE12.7 kmh NE 14.0 mph22.5 kmh 29.76 in1007.8 mb 0.00 in0.0 mm 0.00 in0.0 mm 0.00 in0.0 mm
02:40 PM 67.1°F19.5°C 48.9°F9.4°C 52% 6.6 mph NE10.6 kmh NE 14.0 mph22.5 kmh 29.77 in1008.1 mb 0.00 in0.0 mm 0.00 in0.0 mm 0.00 in0.0 mm
02:45 PM 67.1°F19.5°C 49.4°F9.7°C 53% 4.8 mph NE7.7 kmh NE 8.0 mph12.9 kmh 29.77 in1008.1 mb 0.00 in0.0 mm 0.00 in0.0 mm 0.00 in0.0 mm
02:50 PM 67.1°F19.5°C 49.9°F9.9°C 54% 3.3 mph NE5.3 kmh NE 8.0 mph12.9 kmh 29.78 in1008.5 mb 0.00 in0.0 mm 0.00 in0.0 mm 0.00 in0.0 mm
02:55 PM 67.1°F19.5°C 49.9°F9.9°C 54% 2.6 mph NNE4.2 kmh NNE 8.0 mph12.9 kmh 29.78 in1008.5 mb 0.00 in0.0 mm 0.00 in0.0 mm 0.00 in0.0 mm
03:00 PM 66.9°F19.4°C 50.2°F10.1°C 55% 1.6 mph NW2.6 kmh NW 5.0 mph8.0 kmh 29.77 in1008.1 mb 0.00 in0.0 mm 0.00 in0.0 mm 0.00 in0.0 mm
03:05 PM 66.8°F19.3°C 49.6°F9.8°C 54% 1.0 mph NNE1.6 kmh NNE 5.0 mph8.0 kmh 29.77 in1008.1 mb 0.00 in0.0 mm 0.00 in0.0 mm 0.00 in0.0 mm
03:10 PM 66.8°F19.3°C 49.6°F9.8°C 54% 1.8 mph NE2.9 kmh NE 21.0 mph33.8 kmh 29.75 in1007.5 mb 0.00 in0.0 mm 0.00 in0.0 mm 0.00 in0.0 mm
03:15 PM 66.6°F19.2°C 50.4°F10.2°C 56% 5.2 mph NE8.4 kmh NE 25.0 mph40.2 kmh 29.74 in1007.1 mb 0.00 in0.0 mm 0.00 in0.0 mm 0.00 in0.0 mm
03:20 PM 66.1°F18.9°C 50.4°F10.2°C 57% 10.9 mph NE17.5 kmh NE 25.0 mph40.2 kmh 29.74 in1007.1 mb 0.00 in0.0 mm 0.00 in0.0 mm 0.00 in0.0 mm
03:25 PM 65.7°F18.7°C 50.0°F10.0°C 57% 14.5 mph NE23.3 kmh NE 25.0 mph40.2 kmh 29.73 in1006.8 mb 0.00 in0.0 mm 0.00 in0.0 mm 0.00 in0.0 mm
03:30 PM 65.6°F18.7°C 49.5°F9.7°C 56% 15.1 mph NE24.3 kmh NE 25.0 mph40.2 kmh 29.71 in1006.1 mb 0.00 in0.0 mm 0.00 in0.0 mm 0.00 in0.0 mm
03:35 PM 65.6°F18.7°C 49.5°F9.7°C 56% 15.5 mph NE24.9 kmh NE 33.0 mph53.1 kmh 29.70 in1005.8 mb 0.00 in0.0 mm 0.00 in0.0 mm 0.00 in0.0 mm
03:40 PM 65.4°F18.6°C 49.8°F9.9°C 57% 17.3 mph NE27.8 kmh NE 35.0 mph56.3 kmh 29.71 in1006.1 mb 0.00 in0.0 mm 0.00 in0.0 mm 0.00 in0.0 mm
03:45 PM 65.4°F18.6°C 49.3°F9.6°C 56% 19.1 mph NE30.7 kmh NE 35.0 mph56.3 kmh 29.71 in1006.1 mb 0.00 in0.0 mm 0.00 in0.0 mm 0.00 in0.0 mm
03:50 PM 65.4°F18.6°C 48.8°F9.3°C 55% 19.4 mph NE31.2 kmh NE 30.0 mph48.3 kmh 29.71 in1006.1 mb 0.00 in0.0 mm 0.00 in0.0 mm 0.00 in0.0 mm
03:55 PM 65.4°F18.6°C 49.3°F9.6°C 56% 19.0 mph NE30.6 kmh NE 35.0 mph56.3 kmh 29.71 in1006.1 mb 0.00 in0.0 mm 0.00 in0.0 mm 0.00 in0.0 mm
04:00 PM 65.3°F18.5°C 49.2°F9.6°C 56% 19.3 mph NE31.1 kmh NE 35.0 mph56.3 kmh 29.71 in1006.1 mb 0.00 in0.0 mm 0.00 in0.0 mm 0.00 in0.0 mm
04:05 PM 65.3°F18.5°C 49.7°F9.8°C 57% 19.5 mph NE31.4 kmh NE 31.0 mph49.9 kmh 29.70 in1005.8 mb 0.00 in0.0 mm 0.00 in0.0 mm 0.00 in0.0 mm
04:10 PM 65.2°F18.4°C 49.6°F9.8°C 57% 18.6 mph NE29.9 kmh NE 31.0 mph49.9 kmh 29.70 in1005.8 mb 0.00 in0.0 mm 0.00 in0.0 mm 0.00 in0.0 mm
04:15 PM 65.2°F18.4°C 49.1°F9.5°C 56% 17.7 mph NE28.5 kmh NE 30.0 mph48.3 kmh 29.70 in1005.8 mb 0.00 in0.0 mm 0.00 in0.0 mm 0.00 in0.0 mm
04:20 PM 65.3°F18.5°C 49.2°F9.6°C 56% 17.8 mph NE28.6 kmh NE 30.0 mph48.3 kmh 29.69 in1005.4 mb 0.00 in0.0 mm 0.00 in0.0 mm 0.00 in0.0 mm
04:25 PM 65.5°F18.6°C 48.4°F9.1°C 54% 17.7 mph NE28.5 kmh NE 30.0 mph48.3 kmh 29.68 in1005.1 mb 0.00 in0.0 mm 0.00 in0.0 mm 0.00 in0.0 mm
04:30 PM 66.0°F18.9°C 48.4°F9.1°C 53% 16.8 mph NE27.0 kmh NE 25.0 mph40.2 kmh 29.68 in1005.1 mb 0.00 in0.0 mm 0.00 in0.0 mm 0.00 in0.0 mm
04:35 PM 66.5°F19.2°C 48.3°F9.1°C 52% 16.3 mph NE26.2 kmh NE 28.0 mph45.1 kmh 29.68 in1005.1 mb 0.00 in0.0 mm 0.00 in0.0 mm 0.00 in0.0 mm
04:40 PM 66.9°F19.4°C 48.2°F9.0°C 51% 16.4 mph NE26.4 kmh NE 28.0 mph45.1 kmh 29.68 in1005.1 mb 0.00 in0.0 mm 0.00 in0.0 mm 0.00 in0.0 mm
04:45 PM 67.1°F19.5°C 49.4°F9.7°C 53% 16.1 mph NE25.9 kmh NE 26.0 mph41.8 kmh 29.68 in1005.1 mb 0.00 in0.0 mm 0.00 in0.0 mm 0.00 in0.0 mm
04:50 PM 67.1°F19.5°C 48.9°F9.4°C 52% 15.4 mph NE24.8 kmh NE 26.0 mph41.8 kmh 29.68 in1005.1 mb 0.00 in0.0 mm 0.00 in0.0 mm 0.00 in0.0 mm
04:55 PM 67.4°F19.7°C 49.2°F9.6°C 52% 14.6 mph NE23.5 kmh NE 28.0 mph45.1 kmh 29.68 in1005.1 mb 0.00 in0.0 mm 0.00 in0.0 mm 0.00 in0.0 mm
05:00 PM 67.8°F19.9°C 49.5°F9.7°C 52% 13.7 mph NE22.0 kmh NE 28.0 mph45.1 kmh 29.68 in1005.1 mb 0.00 in0.0 mm 0.00 in0.0 mm 0.00 in0.0 mm
05:05 PM 68.0°F20.0°C 49.2°F9.6°C 51% 12.5 mph NE20.1 kmh NE 19.0 mph30.6 kmh 29.68 in1005.1 mb 0.00 in0.0 mm 0.00 in0.0 mm 0.00 in0.0 mm
05:10 PM 68.0°F20.0°C 48.1°F8.9°C 49% 11.0 mph NE17.7 kmh NE 20.0 mph32.2 kmh 29.69 in1005.4 mb 0.00 in0.0 mm 0.00 in0.0 mm 0.00 in0.0 mm
05:15 PM 67.9°F19.9°C 48.0°F8.9°C 49% 10.4 mph NE16.7 kmh NE 20.0 mph32.2 kmh 29.69 in1005.4 mb 0.00 in0.0 mm 0.00 in0.0 mm 0.00 in0.0 mm
05:20 PM 67.9°F19.9°C 48.0°F8.9°C 49% 10.7 mph NE17.2 kmh NE 20.0 mph32.2 kmh 29.68 in1005.1 mb 0.00 in0.0 mm 0.00 in0.0 mm 0.00 in0.0 mm
05:25 PM 67.7°F19.8°C 47.3°F8.5°C 48% 11.1 mph NE17.9 kmh NE 23.0 mph37.0 kmh 29.68 in1005.1 mb 0.00 in0.0 mm 0.00 in0.0 mm 0.00 in0.0 mm
05:30 PM 67.6°F19.8°C 46.6°F8.1°C 47% 11.7 mph NE18.8 kmh NE 23.0 mph37.0 kmh 29.68 in1005.1 mb 0.00 in0.0 mm 0.00 in0.0 mm 0.00 in0.0 mm
05:35 PM 67.6°F19.8°C 46.6°F8.1°C 47% 12.0 mph NE19.3 kmh NE 21.0 mph33.8 kmh 29.68 in1005.1 mb 0.00 in0.0 mm 0.00 in0.0 mm 0.00 in0.0 mm
05:40 PM 67.6°F19.8°C 46.1°F7.8°C 46% 12.2 mph NE19.6 kmh NE 21.0 mph33.8 kmh 29.69 in1005.4 mb 0.00 in0.0 mm 0.00 in0.0 mm 0.00 in0.0 mm
05:45 PM 67.6°F19.8°C 45.5°F7.5°C 45% 12.3 mph NE19.8 kmh NE 21.0 mph33.8 kmh 29.68 in1005.1 mb 0.00 in0.0 mm 0.00 in0.0 mm 0.00 in0.0 mm
05:50 PM 67.6°F19.8°C 45.5°F7.5°C 45% 12.1 mph NE19.5 kmh NE 20.0 mph32.2 kmh 29.69 in1005.4 mb 0.00 in0.0 mm 0.00 in0.0 mm 0.00 in0.0 mm
05:55 PM 67.5°F19.7°C 46.0°F7.8°C 46% 11.9 mph NE19.2 kmh NE 24.0 mph38.6 kmh 29.69 in1005.4 mb 0.00 in0.0 mm 0.00 in0.0 mm 0.00 in0.0 mm
06:00 PM 67.3°F19.6°C 45.8°F7.7°C 46% 11.6 mph NE18.7 kmh NE 24.0 mph38.6 kmh 29.69 in1005.4 mb 0.00 in0.0 mm 0.00 in0.0 mm 0.00 in0.0 mm
06:05 PM 67.1°F19.5°C 46.2°F7.9°C 47% 11.5 mph NE18.5 kmh NE 20.0 mph32.2 kmh 29.69 in1005.4 mb 0.00 in0.0 mm 0.00 in0.0 mm 0.00 in0.0 mm
06:10 PM 66.9°F19.4°C 46.0°F7.8°C 47% 11.3 mph NE18.2 kmh NE 19.0 mph30.6 kmh 29.69 in1005.4 mb 0.00 in0.0 mm 0.00 in0.0 mm 0.00 in0.0 mm
06:15 PM 66.8°F19.3°C 46.5°F8.1°C 48% 10.6 mph NE17.1 kmh NE 19.0 mph30.6 kmh 29.69 in1005.4 mb 0.00 in0.0 mm 0.00 in0.0 mm 0.00 in0.0 mm
06:20 PM 66.7°F19.3°C 46.4°F8.0°C 48% 10.1 mph NE16.3 kmh NE 19.0 mph30.6 kmh 29.69 in1005.4 mb 0.00 in0.0 mm 0.00 in0.0 mm 0.00 in0.0 mm
06:25 PM 66.7°F19.3°C 46.4°F8.0°C 48% 10.1 mph NE16.3 kmh NE 18.0 mph29.0 kmh 29.70 in1005.8 mb 0.00 in0.0 mm 0.00 in0.0 mm 0.00 in0.0 mm
06:30 PM 66.6°F19.2°C 45.7°F7.6°C 47% 10.4 mph NE16.7 kmh NE 19.0 mph30.6 kmh 29.69 in1005.4 mb 0.00 in0.0 mm 0.00 in0.0 mm 0.00 in0.0 mm
06:35 PM 66.6°F19.2°C 46.3°F7.9°C 48% 10.8 mph NE17.4 kmh NE 20.0 mph32.2 kmh 29.70 in1005.8 mb 0.00 in0.0 mm 0.00 in0.0 mm 0.00 in0.0 mm
06:40 PM 66.5°F19.2°C 46.2°F7.9°C 48% 10.4 mph NE16.7 kmh NE 20.0 mph32.2 kmh 29.70 in1005.8 mb 0.00 in0.0 mm 0.00 in0.0 mm 0.00 in0.0 mm
06:45 PM 66.5°F19.2°C 45.6°F7.6°C 47% 9.9 mph NE15.9 kmh NE 18.0 mph29.0 kmh 29.70 in1005.8 mb 0.00 in0.0 mm 0.00 in0.0 mm 0.00 in0.0 mm
06:50 PM 66.5°F19.2°C 45.6°F7.6°C 47% 10.1 mph NE16.3 kmh NE 20.0 mph32.2 kmh 29.70 in1005.8 mb 0.00 in0.0 mm 0.00 in0.0 mm 0.00 in0.0 mm
06:55 PM 66.5°F19.2°C 46.2°F7.9°C 48% 10.4 mph NE16.7 kmh NE 20.0 mph32.2 kmh 29.70 in1005.8 mb 0.00 in0.0 mm 0.00 in0.0 mm 0.00 in0.0 mm
07:00 PM 66.4°F19.1°C 46.1°F7.8°C 48% 10.7 mph NE17.2 kmh NE 19.0 mph30.6 kmh 29.71 in1006.1 mb 0.00 in0.0 mm 0.00 in0.0 mm 0.00 in0.0 mm
07:05 PM 66.5°F19.2°C 46.2°F7.9°C 48% 10.6 mph NE17.1 kmh NE 17.0 mph27.4 kmh 29.71 in1006.1 mb 0.00 in0.0 mm 0.00 in0.0 mm 0.00 in0.0 mm
07:10 PM 66.5°F19.2°C 46.2°F7.9°C 48% 10.5 mph NE16.9 kmh NE 19.0 mph30.6 kmh 29.71 in1006.1 mb 0.00 in0.0 mm 0.00 in0.0 mm 0.00 in0.0 mm
07:15 PM 66.5°F19.2°C 46.2°F7.9°C 48% 10.8 mph NE17.4 kmh NE 19.0 mph30.6 kmh 29.71 in1006.1 mb 0.00 in0.0 mm 0.00 in0.0 mm 0.00 in0.0 mm
07:20 PM 66.4°F19.1°C 46.1°F7.8°C 48% 11.5 mph NE18.5 kmh NE 22.0 mph35.4 kmh 29.71 in1006.1 mb 0.00 in0.0 mm 0.00 in0.0 mm 0.00 in0.0 mm
07:25 PM 66.3°F19.1°C 46.0°F7.8°C 48% 11.6 mph NE18.7 kmh NE 22.0 mph35.4 kmh 29.71 in1006.1 mb 0.00 in0.0 mm 0.00 in0.0 mm 0.00 in0.0 mm
07:30 PM 66.3°F19.1°C 45.5°F7.5°C 47% 10.6 mph NE17.1 kmh NE 19.0 mph30.6 kmh 29.71 in1006.1 mb 0.00 in0.0 mm 0.00 in0.0 mm 0.00 in0.0 mm
07:35 PM 66.2°F19.0°C 45.4°F7.4°C 47% 10.0 mph NE16.1 kmh NE 19.0 mph30.6 kmh 29.71 in1006.1 mb 0.00 in0.0 mm 0.00 in0.0 mm 0.00 in0.0 mm
07:40 PM 66.2°F19.0°C 45.4°F7.4°C 47% 10.4 mph NE16.7 kmh NE 19.0 mph30.6 kmh 29.72 in1006.4 mb 0.00 in0.0 mm 0.00 in0.0 mm 0.00 in0.0 mm
07:45 PM 66.2°F19.0°C 45.4°F7.4°C 47% 10.9 mph NE17.5 kmh NE 25.0 mph40.2 kmh 29.72 in1006.4 mb 0.00 in0.0 mm 0.00 in0.0 mm 0.00 in0.0 mm
07:50 PM 66.2°F19.0°C 45.4°F7.4°C 47% 11.6 mph NE18.7 kmh NE 25.0 mph40.2 kmh 29.72 in1006.4 mb 0.00 in0.0 mm 0.00 in0.0 mm 0.00 in0.0 mm
07:55 PM 66.1°F18.9°C 45.3°F7.4°C 47% 12.4 mph NE20.0 kmh NE 19.0 mph30.6 kmh 29.72 in1006.4 mb 0.00 in0.0 mm 0.00 in0.0 mm 0.00 in0.0 mm
08:00 PM 66.0°F18.9°C 45.2°F7.3°C 47% 12.1 mph NE19.5 kmh NE 23.0 mph37.0 kmh 29.72 in1006.4 mb 0.00 in0.0 mm 0.00 in0.0 mm 0.00 in0.0 mm
08:05 PM 66.0°F18.9°C 45.2°F7.3°C 47% 11.4 mph NE18.3 kmh NE 23.0 mph37.0 kmh 29.72 in1006.4 mb 0.00 in0.0 mm 0.00 in0.0 mm 0.00 in0.0 mm
08:10 PM 66.0°F18.9°C 45.7°F7.6°C 48% 11.6 mph NE18.7 kmh NE 21.0 mph33.8 kmh 29.73 in1006.8 mb 0.00 in0.0 mm 0.00 in0.0 mm 0.00 in0.0 mm
08:15 PM 65.9°F18.8°C 45.6°F7.6°C 48% 12.0 mph NE19.3 kmh NE 21.0 mph33.8 kmh 29.72 in1006.4 mb 0.00 in0.0 mm 0.00 in0.0 mm 0.00 in0.0 mm
08:20 PM 65.9°F18.8°C 45.6°F7.6°C 48% 11.6 mph NE18.7 kmh NE 19.0 mph30.6 kmh 29.73 in1006.8 mb 0.00 in0.0 mm 0.00 in0.0 mm 0.00 in0.0 mm
08:25 PM 65.9°F18.8°C 45.6°F7.6°C 48% 11.2 mph NE18.0 kmh NE 19.0 mph30.6 kmh 29.73 in1006.8 mb 0.00 in0.0 mm 0.00 in0.0 mm 0.00 in0.0 mm
08:30 PM 66.0°F18.9°C 45.7°F7.6°C 48% 11.6 mph NE18.7 kmh NE 23.0 mph37.0 kmh 29.73 in1006.8 mb 0.00 in0.0 mm 0.00 in0.0 mm 0.00 in0.0 mm
08:35 PM 66.0°F18.9°C 45.7°F7.6°C 48% 12.5 mph NE20.1 kmh NE 24.0 mph38.6 kmh 29.73 in1006.8 mb 0.00 in0.0 mm 0.00 in0.0 mm 0.00 in0.0 mm
08:40 PM 66.0°F18.9°C 45.7°F7.6°C 48% 13.5 mph NE21.7 kmh NE 24.0 mph38.6 kmh 29.73 in1006.8 mb 0.00 in0.0 mm 0.00 in0.0 mm 0.00 in0.0 mm
08:45 PM 65.9°F18.8°C 45.6°F7.6°C 48% 13.6 mph NE21.9 kmh NE 24.0 mph38.6 kmh 29.73 in1006.8 mb 0.00 in0.0 mm 0.00 in0.0 mm 0.00 in0.0 mm
08:50 PM 66.0°F18.9°C 45.7°F7.6°C 48% 13.2 mph NE21.2 kmh NE 26.0 mph41.8 kmh 29.73 in1006.8 mb 0.00 in0.0 mm 0.00 in0.0 mm 0.00 in0.0 mm
08:55 PM 65.7°F18.7°C 46.0°F7.8°C 49% 13.8 mph NE22.2 kmh NE 26.0 mph41.8 kmh 29.74 in1007.1 mb 0.00 in0.0 mm 0.00 in0.0 mm 0.00 in0.0 mm
09:00 PM 65.5°F18.6°C 45.8°F7.7°C 49% 13.3 mph NE21.4 kmh NE 21.0 mph33.8 kmh 29.74 in1007.1 mb 0.00 in0.0 mm 0.00 in0.0 mm 0.00 in0.0 mm
09:05 PM 65.3°F18.5°C 46.2°F7.9°C 50% 10.9 mph NE17.5 kmh NE 16.0 mph25.7 kmh 29.75 in1007.5 mb 0.00 in0.0 mm 0.00 in0.0 mm 0.00 in0.0 mm
09:10 PM 65.0°F18.3°C 45.9°F7.7°C 50% 8.2 mph NE13.2 kmh NE 16.0 mph25.7 kmh 29.75 in1007.5 mb 0.00 in0.0 mm 0.00 in0.0 mm 0.00 in0.0 mm
09:15 PM 64.8°F18.2°C 45.7°F7.6°C 50% 5.3 mph NE8.5 kmh NE 10.0 mph16.1 kmh 29.75 in1007.5 mb 0.00 in0.0 mm 0.00 in0.0 mm 0.00 in0.0 mm
09:20 PM 64.7°F18.2°C 45.6°F7.6°C 50% 3.6 mph NE5.8 kmh NE 9.0 mph14.5 kmh 29.75 in1007.5 mb 0.00 in0.0 mm 0.00 in0.0 mm 0.00 in0.0 mm
09:25 PM 65.1°F18.4°C 44.9°F7.2°C 48% 3.3 mph NE5.3 kmh NE 17.0 mph27.4 kmh 29.75 in1007.5 mb 0.00 in0.0 mm 0.00 in0.0 mm 0.00 in0.0 mm
09:30 PM 65.6°F18.7°C 44.8°F7.1°C 47% 3.7 mph NE6.0 kmh NE 17.0 mph27.4 kmh 29.76 in1007.8 mb 0.00 in0.0 mm 0.00 in0.0 mm 0.00 in0.0 mm
09:35 PM 65.4°F18.6°C 45.2°F7.3°C 48% 3.6 mph NE5.8 kmh NE 7.0 mph11.3 kmh 29.76 in1007.8 mb 0.00 in0.0 mm 0.00 in0.0 mm 0.00 in0.0 mm
09:40 PM 65.1°F18.4°C 44.9°F7.2°C 48% 2.9 mph NE4.7 kmh NE 7.0 mph11.3 kmh 29.76 in1007.8 mb 0.00 in0.0 mm 0.00 in0.0 mm 0.00 in0.0 mm
09:45 PM 65.3°F18.5°C 45.1°F7.3°C 48% 3.1 mph NE5.0 kmh NE 7.0 mph11.3 kmh 29.76 in1007.8 mb 0.00 in0.0 mm 0.00 in0.0 mm 0.00 in0.0 mm
09:50 PM 65.2°F18.4°C 46.1°F7.8°C 50% 3.8 mph NE6.1 kmh NE 7.0 mph11.3 kmh 29.76 in1007.8 mb 0.00 in0.0 mm 0.00 in0.0 mm 0.00 in0.0 mm
09:55 PM 64.8°F18.2°C 46.2°F7.9°C 51% 4.2 mph NE6.8 kmh NE 9.0 mph14.5 kmh 29.76 in1007.8 mb 0.00 in0.0 mm 0.00 in0.0 mm 0.00 in0.0 mm
10:00 PM 64.7°F18.2°C 46.1°F7.8°C 51% 4.7 mph NE7.6 kmh NE 9.0 mph14.5 kmh 29.76 in1007.8 mb 0.00 in0.0 mm 0.00 in0.0 mm 0.00 in0.0 mm
10:05 PM 64.5°F18.1°C 46.5°F8.1°C 52% 5.2 mph NE8.4 kmh NE 11.0 mph17.7 kmh 29.77 in1008.1 mb 0.00 in0.0 mm 0.00 in0.0 mm 0.00 in0.0 mm
10:10 PM 64.5°F18.1°C 46.5°F8.1°C 52% 5.7 mph NE9.2 kmh NE 11.0 mph17.7 kmh 29.77 in1008.1 mb 0.00 in0.0 mm 0.00 in0.0 mm 0.00 in0.0 mm
10:15 PM 64.2°F17.9°C 46.7°F8.2°C 53% 5.8 mph NE9.3 kmh NE 8.0 mph12.9 kmh 29.77 in1008.1 mb 0.00 in0.0 mm 0.00 in0.0 mm 0.00 in0.0 mm
10:20 PM 64.2°F17.9°C 46.7°F8.2°C 53% 5.2 mph NE8.4 kmh NE 9.0 mph14.5 kmh 29.77 in1008.1 mb 0.00 in0.0 mm 0.00 in0.0 mm 0.00 in0.0 mm
10:25 PM 64.1°F17.8°C 46.6°F8.1°C 53% 4.4 mph NE7.1 kmh NE 9.0 mph14.5 kmh 29.77 in1008.1 mb 0.00 in0.0 mm 0.00 in0.0 mm 0.00 in0.0 mm
10:30 PM 63.9°F17.7°C 46.9°F8.3°C 54% 4.0 mph NE6.4 kmh NE 8.0 mph12.9 kmh 29.78 in1008.5 mb 0.00 in0.0 mm 0.00 in0.0 mm 0.00 in0.0 mm
10:35 PM 63.7°F17.6°C 47.2°F8.4°C 55% 3.7 mph NE6.0 kmh NE 8.0 mph12.9 kmh 29.77 in1008.1 mb 0.00 in0.0 mm 0.00 in0.0 mm 0.00 in0.0 mm
10:40 PM 63.5°F17.5°C 47.0°F8.3°C 55% 3.3 mph NE5.3 kmh NE 8.0 mph12.9 kmh 29.77 in1008.1 mb 0.00 in0.0 mm 0.00 in0.0 mm 0.00 in0.0 mm
10:45 PM 63.3°F17.4°C 46.9°F8.3°C 55% 3.6 mph NE5.8 kmh NE 8.0 mph12.9 kmh 29.77 in1008.1 mb 0.00 in0.0 mm 0.00 in0.0 mm 0.00 in0.0 mm
10:50 PM 62.7°F17.1°C 46.8°F8.2°C 56% 3.9 mph NE6.3 kmh NE 7.0 mph11.3 kmh 29.77 in1008.1 mb 0.00 in0.0 mm 0.00 in0.0 mm 0.00 in0.0 mm
10:55 PM 62.6°F17.0°C 46.7°F8.2°C 56% 3.1 mph NE5.0 kmh NE 5.0 mph8.0 kmh 29.77 in1008.1 mb 0.00 in0.0 mm 0.00 in0.0 mm 0.00 in0.0 mm
11:00 PM 62.7°F17.1°C 46.3°F7.9°C 55% 2.5 mph NE4.0 kmh NE 5.0 mph8.0 kmh 29.77 in1008.1 mb 0.00 in0.0 mm 0.00 in0.0 mm 0.00 in0.0 mm
11:05 PM 62.6°F17.0°C 46.2°F7.9°C 55% 2.8 mph NE4.5 kmh NE 5.0 mph8.0 kmh 29.77 in1008.1 mb 0.00 in0.0 mm 0.00 in0.0 mm 0.00 in0.0 mm
11:10 PM 62.7°F17.1°C 46.3°F7.9°C 55% 3.0 mph NE4.8 kmh NE 5.0 mph8.0 kmh 29.77 in1008.1 mb 0.00 in0.0 mm 0.00 in0.0 mm 0.00 in0.0 mm
11:15 PM 62.1°F16.7°C 46.7°F8.2°C 57% 2.9 mph NE4.7 kmh NE 5.0 mph8.0 kmh 29.77 in1008.1 mb 0.00 in0.0 mm 0.00 in0.0 mm 0.00 in0.0 mm
11:20 PM 61.7°F16.5°C 46.8°F8.2°C 58% 2.4 mph NE3.9 kmh NE 5.0 mph8.0 kmh 29.76 in1007.8 mb 0.00 in0.0 mm 0.00 in0.0 mm 0.00 in0.0 mm
11:25 PM 61.5°F16.4°C 47.0°F8.3°C 59% 1.5 mph NE2.4 kmh NE 3.0 mph4.8 kmh 29.76 in1007.8 mb 0.00 in0.0 mm 0.00 in0.0 mm 0.00 in0.0 mm
11:30 PM 61.5°F16.4°C 47.0°F8.3°C 59% 1.0 mph NE1.6 kmh NE 3.0 mph4.8 kmh 29.76 in1007.8 mb 0.00 in0.0 mm 0.00 in0.0 mm 0.00 in0.0 mm
11:35 PM 61.3°F16.3°C 46.8°F8.2°C 59% 1.3 mph NE2.1 kmh NE 5.0 mph8.0 kmh 29.75 in1007.5 mb 0.00 in0.0 mm 0.00 in0.0 mm 0.00 in0.0 mm
11:40 PM 60.9°F16.1°C 46.9°F8.3°C 60% 1.8 mph NE2.9 kmh NE 5.0 mph8.0 kmh 29.75 in1007.5 mb 0.00 in0.0 mm 0.00 in0.0 mm 0.00 in0.0 mm
11:45 PM 60.5°F15.8°C 47.4°F8.6°C 62% 2.0 mph NE3.2 kmh NE 4.0 mph6.4 kmh 29.75 in1007.5 mb 0.00 in0.0 mm 0.00 in0.0 mm 0.00 in0.0 mm
11:50 PM 60.1°F15.6°C 47.5°F8.6°C 63% 2.0 mph NE3.2 kmh NE 4.0 mph6.4 kmh 29.75 in1007.5 mb 0.00 in0.0 mm 0.00 in0.0 mm 0.00 in0.0 mm
11:55 PM 59.6°F15.3°C 47.4°F8.6°C 64% 2.0 mph NE3.2 kmh NE 4.0 mph6.4 kmh 29.75 in1007.5 mb 0.00 in0.0 mm 0.00 in0.0 mm 0.00 in0.0 mm